VTSH

Details ICAO VTSH
Name Songkhla
Region Thailand
Timezone Asia/Bangkok (UTC+7.0)
Plans Departing 4
Arriving 2
Stats Elevation 12 ft / 4 m (AMSL)
Location 7.186500° 100.608078°
Runways 1
Magnetic Variation 0.251° W
Sunrise 2018-05-25 23:01:17 UTC / 2018-05-26 06:01:17 Local
Sunset 2018-05-26 11:30:45 UTC / 2018-05-26 18:30:45 Local
Advertisement - Login to hide

Runways

ID Width Length Bearing (true) Bearing (mag) Surface Threshold Offset Overrun Length
13 148 ft / 45 m 4,942 ft / 1,506 m 134.88° 135.13° Asphalt 0 ft / 0 m 0 ft / 0 m
31 148 ft / 45 m 4,942 ft / 1,506 m 314.88° 315.13° Asphalt 0 ft / 0 m 0 ft / 0 m

Map

Weather


0- 5 10 15 20 25 30 35+ Temperature / ° C

Clouds and Precipitation
Forecast for 2018-05-26 12:00 UTC. Updated 2 hours ago

Ground ~20,000 ft ~40,000 ft Winds

METAR

Not found

TAF

TAF VTSH 261100Z 2612/2712 34005KT 9999 FEW020 TEMPO 2704/2710 VRB10G20KT 6000 -TSRA FEW016CB SCT018 BKN100

Frequencies

Tower 126.20 MHz TWR
Warning: Do not use this data for real-world aviation or navigation. No guarantee of current accuracy is given.